Skiff — 5VCS7 — position and weather

sailwx.info

Track history (hours):
 
Tides and Currents Weather Stations Pressure Air Temp Water Temp Dewpoint Dewpoint Depression Visibility Wind Speed Wind Dir Waves Ship Positions

Skiff

Last reported at 2017-Nov-14 23:06 UTC. Time now 2017-Nov-24 14:54 UTC.
Position N 43°41' E 028°50'.
Warning: this ship's position is 9 days out of date.

Length 84 m; draft 5 m.

Type: Cargo ship. MMSI: 671480000.

Date/timePositionNaut miles runAvg speedWind from/ knotsBaromVisibWave heightAir tempDewpointWater temp
2017-Nov-14 23:06N 43°41' E 028°50'3 7.9
2017-Nov-14 22:47N 43°43' E 028°49'2 8.1
2017-Nov-14 22:30N 43°46' E 028°49'4 8.1
2017-Nov-14 22:00N 43°50' E 028°50'4 8.3
2017-Nov-14 21:30N 43°54' E 028°51'4 8.2
2017-Nov-14 21:00N 43°58' E 028°52'4 8.1
2017-Nov-14 20:30N 44°02' E 028°53'4 7.9
2017-Nov-14 20:00N 44°05' E 028°54'4 8.1
2017-Nov-14 19:30N 44°09' E 028°55'4 8.2
2017-Nov-14 19:00N 44°13' E 028°56'4 8.2
2017-Nov-14 18:30N 44°17' E 028°57'4 8.3
2017-Nov-14 18:00N 44°22' E 028°58'4 8.3
2017-Nov-14 17:30N 44°25' E 029°00'4 8.6
2017-Nov-14 17:00N 44°29' E 029°04'4 8.8
2017-Nov-14 16:30N 44°33' E 029°07'4 8.8
2017-Nov-14 16:00N 44°36' E 029°11'  
Track history (hours):
 
Tides and Currents Weather Stations Pressure Air Temp Water Temp Dewpoint Dewpoint Depression Visibility Wind Speed Wind Dir Waves Ship Positions

Skiff

Last reported at 2017-Nov-14 23:06 UTC. Time now 2017-Nov-24 14:54 UTC.
Position N 43°41' E 028°50'.
Warning: this ship's position is 9 days out of date.

Length 84 m; draft 5 m.

Type: Cargo ship. MMSI: 671480000.

Date/timePositionNaut miles runAvg speedWind from/ knotsBaromVisibWave heightAir tempDewpointWater temp
2017-Nov-14 23:06N 43°41' E 028°50'3 7.9
2017-Nov-14 22:47N 43°43' E 028°49'2 8.1
2017-Nov-14 22:30N 43°46' E 028°49'4 8.1
2017-Nov-14 22:00N 43°50' E 028°50'4 8.3
2017-Nov-14 21:30N 43°54' E 028°51'4 8.2
2017-Nov-14 21:00N 43°58' E 028°52'4 8.1
2017-Nov-14 20:30N 44°02' E 028°53'4 7.9
2017-Nov-14 20:00N 44°05' E 028°54'4 8.1
2017-Nov-14 19:30N 44°09' E 028°55'4 8.2
2017-Nov-14 19:00N 44°13' E 028°56'4 8.2
2017-Nov-14 18:30N 44°17' E 028°57'4 8.3
2017-Nov-14 18:00N 44°22' E 028°58'4 8.3
2017-Nov-14 17:30N 44°25' E 029°00'4 8.6
2017-Nov-14 17:00N 44°29' E 029°04'4 8.8
2017-Nov-14 16:30N 44°33' E 029°07'4 8.8
2017-Nov-14 16:00N 44°36' E 029°11'  

Dump ship's entire track history